sensor_id;sensor_type;location;lat;lon;timestamp;pressure;altitude;pressure_sealevel;temperature;humidity
73240;BME280;61452;40.054;4.110;2022-09-23T00:02:20;101911.03;;;26.01;66.72
73240;BME280;61452;40.054;4.110;2022-09-23T00:07:22;101911.91;;;26.01;66.51
73240;BME280;61452;40.054;4.110;2022-09-23T00:12:24;101911.03;;;26.01;66.55
73240;BME280;61452;40.054;4.110;2022-09-23T00:17:26;101915.56;;;26.00;66.60
73240;BME280;61452;40.054;4.110;2022-09-23T00:22:28;101903.97;;;26.00;66.56
73240;BME280;61452;40.054;4.110;2022-09-23T00:27:31;101904.81;;;26.00;66.62
73240;BME280;61452;40.054;4.110;2022-09-23T00:32:35;101901.28;;;26.00;66.75
73240;BME280;61452;40.054;4.110;2022-09-23T00:37:38;101903.13;;;25.99;66.61
73240;BME280;61452;40.054;4.110;2022-09-23T00:42:50;101892.38;;;25.99;66.83
73240;BME280;61452;40.054;4.110;2022-09-23T00:52:58;101892.38;;;25.99;66.95
73240;BME280;61452;40.054;4.110;2022-09-23T00:58:02;101881.78;;;25.98;66.81
73240;BME280;61452;40.054;4.110;2022-09-23T01:03:07;101879.09;;;25.98;66.79
73240;BME280;61452;40.054;4.110;2022-09-23T01:08:11;101885.31;;;25.98;66.46
73240;BME280;61452;40.054;4.110;2022-09-23T01:18:47;101872.69;;;25.99;66.83
73240;BME280;61452;40.054;4.110;2022-09-23T01:34:58;101866.63;;;25.97;66.87
73240;BME280;61452;40.054;4.110;2022-09-23T01:40:16;101867.75;;;25.94;66.79
73240;BME280;61452;40.054;4.110;2022-09-23T01:45:23;101857.72;;;25.96;66.89
73240;BME280;61452;40.054;4.110;2022-09-23T01:50:33;101862.25;;;25.96;66.67
73240;BME280;61452;40.054;4.110;2022-09-23T01:55:59;101869.31;;;25.97;66.89
73240;BME280;61452;40.054;4.110;2022-09-23T02:01:06;101864.94;;;25.96;66.84
73240;BME280;61452;40.054;4.110;2022-09-23T02:06:23;101856.03;;;25.95;66.82
73240;BME280;61452;40.054;4.110;2022-09-23T02:11:29;101859.56;;;25.96;66.79
73240;BME280;61452;40.054;4.110;2022-09-23T02:16:55;101852.63;;;25.93;67.01
73240;BME280;61452;40.054;4.110;2022-09-23T02:22:04;101856.03;;;25.95;67.05
73240;BME280;61452;40.054;4.110;2022-09-23T02:27:31;101858.84;;;25.94;67.05
73240;BME280;61452;40.054;4.110;2022-09-23T02:32:53;101845.41;;;25.94;67.09
73240;BME280;61452;40.054;4.110;2022-09-23T02:48:25;101850.78;;;25.94;66.93
73240;BME280;61452;40.054;4.110;2022-09-23T02:53:30;101848.09;;;25.94;66.99
73240;BME280;61452;40.054;4.110;2022-09-23T02:58:35;101848.94;;;25.94;67.01
73240;BME280;61452;40.054;4.110;2022-09-23T03:03:48;101840.88;;;25.94;66.62
73240;BME280;61452;40.054;4.110;2022-09-23T03:09:01;101845.41;;;25.94;66.87
73240;BME280;61452;40.054;4.110;2022-09-23T03:14:23;101850.97;;;25.92;66.99
73240;BME280;61452;40.054;4.110;2022-09-23T03:19:51;101844.56;;;25.93;66.72
73240;BME280;61452;40.054;4.110;2022-09-23T03:25:00;101843.88;;;25.91;66.83
73240;BME280;61452;40.054;4.110;2022-09-23T03:30:05;101841.03;;;25.93;66.86
73240;BME280;61452;40.054;4.110;2022-09-23T03:35:08;101835.81;;;25.91;66.79
73240;BME280;61452;40.054;4.110;2022-09-23T03:45:19;101841.19;;;25.91;66.86
73240;BME280;61452;40.054;4.110;2022-09-23T03:50:23;101835.81;;;25.91;66.88
73240;BME280;61452;40.054;4.110;2022-09-23T03:55:25;101844.72;;;25.92;67.00
73240;BME280;61452;40.054;4.110;2022-09-23T04:00:27;101844.88;;;25.90;67.03
73240;BME280;61452;40.054;4.110;2022-09-23T04:05:29;101855.47;;;25.92;66.86
73240;BME280;61452;40.054;4.110;2022-09-23T04:10:32;101850.25;;;25.90;67.04
73240;BME280;61452;40.054;4.110;2022-09-23T04:15:34;101855.63;;;25.90;66.81
73240;BME280;61452;40.054;4.110;2022-09-23T04:20:37;101853.78;;;25.91;66.69
73240;BME280;61452;40.054;4.110;2022-09-23T04:25:44;101860.00;;;25.91;66.91
73240;BME280;61452;40.054;4.110;2022-09-23T04:30:47;101861.84;;;25.91;66.75
73240;BME280;61452;40.054;4.110;2022-09-23T04:35:50;101858.31;;;25.90;66.70
73240;BME280;61452;40.054;4.110;2022-09-23T04:40:52;101869.78;;;25.92;66.63
73240;BME280;61452;40.054;4.110;2022-09-23T04:46:04;101873.59;;;25.90;66.90
73240;BME280;61452;40.054;4.110;2022-09-23T04:51:15;101869.22;;;25.89;67.01
73240;BME280;61452;40.054;4.110;2022-09-23T04:56:18;101871.03;;;25.88;66.71
73240;BME280;61452;40.054;4.110;2022-09-23T05:01:23;101870.19;;;25.88;66.87
73240;BME280;61452;40.054;4.110;2022-09-23T05:06:26;101876.41;;;25.88;66.87
73240;BME280;61452;40.054;4.110;2022-09-23T05:11:29;101866.81;;;25.86;66.98
73240;BME280;61452;40.054;4.110;2022-09-23T05:16:32;101870.19;;;25.88;66.74
73240;BME280;61452;40.054;4.110;2022-09-23T05:21:34;101875.56;;;25.88;66.68
73240;BME280;61452;40.054;4.110;2022-09-23T05:26:37;101869.50;;;25.86;66.81
73240;BME280;61452;40.054;4.110;2022-09-23T05:31:40;101872.03;;;25.87;66.95
73240;BME280;61452;40.054;4.110;2022-09-23T05:36:42;101884.63;;;25.87;66.56
73240;BME280;61452;40.054;4.110;2022-09-23T05:41:44;101881.78;;;25.88;66.90
73240;BME280;61452;40.054;4.110;2022-09-23T05:46:46;101889.16;;;25.86;66.80
73240;BME280;61452;40.054;4.110;2022-09-23T05:51:48;101885.66;;;25.86;66.94
73240;BME280;61452;40.054;4.110;2022-09-23T05:56:50;101882.69;;;25.79;66.76
73240;BME280;61452;40.054;4.110;2022-09-23T06:01:53;101896.41;;;25.86;66.73
73240;BME280;61452;40.054;4.110;2022-09-23T06:06:57;101894.69;;;25.85;66.69
73240;BME280;61452;40.054;4.110;2022-09-23T06:12:04;101900.06;;;25.85;66.69
73240;BME280;61452;40.054;4.110;2022-09-23T06:17:07;101898.38;;;25.84;66.74
73240;BME280;61452;40.054;4.110;2022-09-23T06:22:09;101904.59;;;25.84;66.59
73240;BME280;61452;40.054;4.110;2022-09-23T06:27:11;101903.75;;;25.84;66.84
73240;BME280;61452;40.054;4.110;2022-09-23T06:32:14;101910.13;;;25.83;66.78
73240;BME280;61452;40.054;4.110;2022-09-23T06:37:17;101909.28;;;25.82;66.77
73240;BME280;61452;40.054;4.110;2022-09-23T06:42:21;101916.47;;;25.82;66.73
73240;BME280;61452;40.054;4.110;2022-09-23T06:47:23;101921.84;;;25.82;66.66
73240;BME280;61452;40.054;4.110;2022-09-23T06:52:25;101923.56;;;25.83;67.02
73240;BME280;61452;40.054;4.110;2022-09-23T06:57:31;101922.72;;;25.82;66.75
73240;BME280;61452;40.054;4.110;2022-09-23T07:02:33;101917.47;;;25.81;67.00
73240;BME280;61452;40.054;4.110;2022-09-23T07:07:36;101914.78;;;25.81;66.84
73240;BME280;61452;40.054;4.110;2022-09-23T07:12:39;101919.31;;;25.80;66.63
73240;BME280;61452;40.054;4.110;2022-09-23T07:17:41;101923.88;;;25.80;66.86
73240;BME280;61452;40.054;4.110;2022-09-23T07:22:48;101939.16;;;25.79;66.64
73240;BME280;61452;40.054;4.110;2022-09-23T07:27:50;101931.09;;;25.79;66.88
73240;BME280;61452;40.054;4.110;2022-09-23T07:32:52;101926.41;;;25.71;66.77
73240;BME280;61452;40.054;4.110;2022-09-23T07:37:54;101950.03;;;25.77;67.15
73240;BME280;61452;40.054;4.110;2022-09-23T07:42:56;101951.03;;;25.76;66.80
73240;BME280;61452;40.054;4.110;2022-09-23T07:48:00;101958.38;;;25.74;66.94
73240;BME280;61452;40.054;4.110;2022-09-23T07:53:02;101967.28;;;25.75;67.07
73240;BME280;61452;40.054;4.110;2022-09-23T07:58:04;101972.66;;;25.75;67.19
73240;BME280;61452;40.054;4.110;2022-09-23T08:03:07;101969.97;;;25.75;66.98
73240;BME280;61452;40.054;4.110;2022-09-23T08:08:10;101966.59;;;25.73;67.05
73240;BME280;61452;40.054;4.110;2022-09-23T08:13:12;101973.66;;;25.74;67.03
73240;BME280;61452;40.054;4.110;2022-09-23T08:18:14;101985.25;;;25.74;66.90
73240;BME280;61452;40.054;4.110;2022-09-23T08:23:16;101993.47;;;25.73;66.89
73240;BME280;61452;40.054;4.110;2022-09-23T08:28:19;101998.69;;;25.74;66.88
73240;BME280;61452;40.054;4.110;2022-09-23T08:33:21;102003.22;;;25.74;66.88
73240;BME280;61452;40.054;4.110;2022-09-23T08:38:24;102007.06;;;25.71;66.80
73240;BME280;61452;40.054;4.110;2022-09-23T08:43:29;102023.06;;;25.73;66.84
73240;BME280;61452;40.054;4.110;2022-09-23T08:48:41;102015.00;;;25.73;66.94
73240;BME280;61452;40.054;4.110;2022-09-23T08:53:44;102023.06;;;25.73;66.86
73240;BME280;61452;40.054;4.110;2022-09-23T09:04:34;102013.28;;;25.72;66.95
73240;BME280;61452;40.054;4.110;2022-09-23T09:30:42;102024.03;;;25.72;66.59
73240;BME280;61452;40.054;4.110;2022-09-23T09:36:11;102030.41;;;25.71;66.81
73240;BME280;61452;40.054;4.110;2022-09-23T09:41:17;102034.78;;;25.72;66.74
73240;BME280;61452;40.054;4.110;2022-09-23T09:51:42;102041.16;;;25.71;66.75
73240;BME280;61452;40.054;4.110;2022-09-23T09:56:44;102028.56;;;25.71;66.59
73240;BME280;61452;40.054;4.110;2022-09-23T10:02:12;102019.66;;;25.71;66.61
73240;BME280;61452;40.054;4.110;2022-09-23T10:07:24;102013.28;;;25.72;66.68
73240;BME280;61452;40.054;4.110;2022-09-23T10:12:42;102010.59;;;25.72;66.79
73240;BME280;61452;40.054;4.110;2022-09-23T10:17:49;102014.13;;;25.72;66.71
73240;BME280;61452;40.054;4.110;2022-09-23T10:22:52;102014.13;;;25.72;66.54
73240;BME280;61452;40.054;4.110;2022-09-23T10:27:57;102018.53;;;25.73;66.48
73240;BME280;61452;40.054;4.110;2022-09-23T10:32:59;102015.84;;;25.73;66.38
73240;BME280;61452;40.054;4.110;2022-09-23T10:38:01;102013.97;;;25.74;66.24
73240;BME280;61452;40.054;4.110;2022-09-23T11:05:27;101992.63;;;25.72;66.44
73240;BME280;61452;40.054;4.110;2022-09-23T11:11:05;102000.69;;;25.72;66.21
73240;BME280;61452;40.054;4.110;2022-09-23T11:27:30;101979.19;;;25.72;66.41
73240;BME280;61452;40.054;4.110;2022-09-23T11:38:45;101971.13;;;25.72;66.43
73240;BME280;61452;40.054;4.110;2022-09-23T11:44:02;101970.16;;;25.73;66.49
73240;BME280;61452;40.054;4.110;2022-09-23T11:49:28;101975.53;;;25.73;66.39
73240;BME280;61452;40.054;4.110;2022-09-23T11:54:39;101955.28;;;25.69;66.42
73240;BME280;61452;40.054;4.110;2022-09-23T11:59:49;101962.09;;;25.73;66.09
73240;BME280;61452;40.054;4.110;2022-09-23T12:05:16;101951.31;;;25.73;66.38
73240;BME280;61452;40.054;4.110;2022-09-23T12:10:22;101952.16;;;25.74;66.49
73240;BME280;61452;40.054;4.110;2022-09-23T12:26:33;101936.88;;;25.74;66.33
73240;BME280;61452;40.054;4.110;2022-09-23T12:31:36;101927.28;;;25.72;66.43
73240;BME280;61452;40.054;4.110;2022-09-23T12:36:43;101914.50;;;25.74;65.90
73240;BME280;61452;40.054;4.110;2022-09-23T12:41:47;101914.50;;;25.74;66.07
73240;BME280;61452;40.054;4.110;2022-09-23T13:08:17;101890.31;;;25.74;66.11
73240;BME280;61452;40.054;4.110;2022-09-23T13:13:40;101889.50;;;25.73;66.29
73240;BME280;61452;40.054;4.110;2022-09-23T13:18:54;101875.91;;;25.75;66.24
73240;BME280;61452;40.054;4.110;2022-09-23T13:24:16;101877.72;;;25.74;66.18
73240;BME280;61452;40.054;4.110;2022-09-23T13:35:31;101865.31;;;25.73;66.08
73240;BME280;61452;40.054;4.110;2022-09-23T13:40:35;101850.84;;;25.74;66.16
73240;BME280;61452;40.054;4.110;2022-09-23T13:45:39;101846.19;;;25.76;66.09
73240;BME280;61452;40.054;4.110;2022-09-23T13:50:47;101833.75;;;25.75;65.90
73240;BME280;61452;40.054;4.110;2022-09-23T14:01:02;101817.47;;;25.77;66.14
73240;BME280;61452;40.054;4.110;2022-09-23T14:06:11;101818.31;;;25.77;65.75
73240;BME280;61452;40.054;4.110;2022-09-23T14:11:17;101822.72;;;25.78;65.83
73240;BME280;61452;40.054;4.110;2022-09-23T14:16:22;101821.84;;;25.78;66.02
73240;BME280;61452;40.054;4.110;2022-09-23T14:21:37;101820.03;;;25.78;65.80
73240;BME280;61452;40.054;4.110;2022-09-23T14:26:46;101818.31;;;25.77;65.76
73240;BME280;61452;40.054;4.110;2022-09-23T14:31:56;101810.25;;;25.77;65.74
73240;BME280;61452;40.054;4.110;2022-09-23T14:37:54;101803.91;;;25.78;65.76
73240;BME280;61452;40.054;4.110;2022-09-23T14:42:51;101801.88;;;25.81;65.68
73240;BME280;61452;40.054;4.110;2022-09-23T14:47:59;101782.00;;;25.73;65.74
73240;BME280;61452;40.054;4.110;2022-09-23T14:58:22;101771.25;;;25.73;65.46
73240;BME280;61452;40.054;4.110;2022-09-23T15:03:27;101791.13;;;25.81;65.63
73240;BME280;61452;40.054;4.110;2022-09-23T15:08:30;101782.22;;;25.80;65.69
73240;BME280;61452;40.054;4.110;2022-09-23T15:13:40;101790.28;;;25.80;65.46
73240;BME280;61452;40.054;4.110;2022-09-23T15:18:44;101794.66;;;25.81;65.40
73240;BME280;61452;40.054;4.110;2022-09-23T15:23:51;101789.28;;;25.81;65.67
73240;BME280;61452;40.054;4.110;2022-09-23T15:28:55;101777.28;;;25.75;65.50
73240;BME280;61452;40.054;4.110;2022-09-23T15:33:59;101782.06;;;25.82;65.40
73240;BME280;61452;40.054;4.110;2022-09-23T15:39:04;101781.22;;;25.81;65.58
73240;BME280;61452;40.054;4.110;2022-09-23T15:44:17;101795.50;;;25.82;65.75
73240;BME280;61452;40.054;4.110;2022-09-23T15:49:26;101774.84;;;25.82;65.62
73240;BME280;61452;40.054;4.110;2022-09-23T15:54:30;101757.75;;;25.83;65.29
73240;BME280;61452;40.054;4.110;2022-09-23T15:59:33;101759.44;;;25.84;65.53
73240;BME280;61452;40.054;4.110;2022-09-23T16:04:35;101753.22;;;25.84;65.49
73240;BME280;61452;40.054;4.110;2022-09-23T16:09:37;101745.00;;;25.85;65.54
73240;BME280;61452;40.054;4.110;2022-09-23T16:14:40;101754.91;;;25.85;65.38
73240;BME280;61452;40.054;4.110;2022-09-23T16:19:42;101750.38;;;25.85;65.53
73240;BME280;61452;40.054;4.110;2022-09-23T16:24:44;101739.44;;;25.87;65.30
73240;BME280;61452;40.054;4.110;2022-09-23T16:29:48;101743.97;;;25.86;65.42
73240;BME280;61452;40.054;4.110;2022-09-23T16:34:50;101738.59;;;25.86;65.33
73240;BME280;61452;40.054;4.110;2022-09-23T16:39:52;101743.97;;;25.86;65.26
73240;BME280;61452;40.054;4.110;2022-09-23T16:44:54;101749.34;;;25.86;65.31
73240;BME280;61452;40.054;4.110;2022-09-23T16:49:56;101753.91;;;25.86;65.57
73240;BME280;61452;40.054;4.110;2022-09-23T16:54:58;101770.03;;;25.86;65.30
73240;BME280;61452;40.054;4.110;2022-09-23T17:00:00;101768.03;;;25.88;65.57
73240;BME280;61452;40.054;4.110;2022-09-23T17:05:38;101771.56;;;25.88;65.43
73240;BME280;61452;40.054;4.110;2022-09-23T17:10:41;101777.94;;;25.87;65.60
73240;BME280;61452;40.054;4.110;2022-09-23T17:15:43;101776.94;;;25.88;65.33
73240;BME280;61452;40.054;4.110;2022-09-23T17:20:59;101774.25;;;25.88;65.82
73240;BME280;61452;40.054;4.110;2022-09-23T17:26:02;101771.72;;;25.87;65.53
73240;BME280;61452;40.054;4.110;2022-09-23T17:31:06;101787.56;;;25.90;65.56
73240;BME280;61452;40.054;4.110;2022-09-23T17:36:11;101791.09;;;25.90;65.72
73240;BME280;61452;40.054;4.110;2022-09-23T17:41:14;101795.47;;;25.91;65.58
73240;BME280;61452;40.054;4.110;2022-09-23T17:46:17;101790.09;;;25.91;65.77
73240;BME280;61452;40.054;4.110;2022-09-23T17:51:20;101782.03;;;25.91;65.64
73240;BME280;61452;40.054;4.110;2022-09-23T17:56:24;101798.16;;;25.91;65.93
73240;BME280;61452;40.054;4.110;2022-09-23T18:01:27;101787.41;;;25.91;65.80
73240;BME280;61452;40.054;4.110;2022-09-23T18:06:32;101787.25;;;25.93;65.81
73240;BME280;61452;40.054;4.110;2022-09-23T18:11:38;101769.28;;;25.93;65.70
73240;BME280;61452;40.054;4.110;2022-09-23T18:16:42;101772.81;;;25.94;65.72
73240;BME280;61452;40.054;4.110;2022-09-23T18:21:46;101773.66;;;25.94;65.33
73240;BME280;61452;40.054;4.110;2022-09-23T18:26:51;101777.19;;;25.95;65.56
73240;BME280;61452;40.054;4.110;2022-09-23T18:31:54;101773.50;;;25.96;65.85
73240;BME280;61452;40.054;4.110;2022-09-23T18:36:57;101758.38;;;25.95;65.59
73240;BME280;61452;40.054;4.110;2022-09-23T18:41:59;101752.84;;;25.96;65.49
73240;BME280;61452;40.054;4.110;2022-09-23T18:47:03;101759.22;;;25.95;65.82
73240;BME280;61452;40.054;4.110;2022-09-23T18:52:05;101759.09;;;25.97;65.53
73240;BME280;61452;40.054;4.110;2022-09-23T18:57:07;101757.38;;;25.96;65.77
73240;BME280;61452;40.054;4.110;2022-09-23T19:02:09;101752.00;;;25.96;65.53
73240;BME280;61452;40.054;4.110;2022-09-23T19:07:11;101759.09;;;25.97;65.48
73240;BME280;61452;40.054;4.110;2022-09-23T19:12:13;101762.75;;;25.96;65.54
73240;BME280;61452;40.054;4.110;2022-09-23T19:17:15;101759.94;;;25.97;65.43
73240;BME280;61452;40.054;4.110;2022-09-23T19:22:17;101740.16;;;25.89;65.53
73240;BME280;61452;40.054;4.110;2022-09-23T19:27:20;101756.53;;;25.95;65.39
73240;BME280;61452;40.054;4.110;2022-09-23T19:32:22;101753.69;;;25.97;65.46
73240;BME280;61452;40.054;4.110;2022-09-23T19:37:27;101754.69;;;25.96;nan
73240;BME280;61452;40.054;4.110;2022-09-23T19:42:29;101743.94;;;25.96;65.51
73240;BME280;61452;40.054;4.110;2022-09-23T19:47:31;101742.94;;;25.97;65.41
73240;BME280;61452;40.054;4.110;2022-09-23T19:52:33;101733.03;;;25.97;65.56
73240;BME280;61452;40.054;4.110;2022-09-23T19:57:36;101733.88;;;25.98;65.57
73240;BME280;61452;40.054;4.110;2022-09-23T20:02:38;101729.50;;;25.97;65.51
73240;BME280;61452;40.054;4.110;2022-09-23T20:07:40;101728.50;;;25.98;65.46
73240;BME280;61452;40.054;4.110;2022-09-23T20:12:43;101729.66;;;25.95;65.28
73240;BME280;61452;40.054;4.110;2022-09-23T20:17:45;101728.50;;;25.98;65.69
73240;BME280;61452;40.054;4.110;2022-09-23T20:22:47;101720.44;;;25.98;65.50
73240;BME280;61452;40.054;4.110;2022-09-23T20:27:51;101713.22;;;25.98;65.56
73240;BME280;61452;40.054;4.110;2022-09-23T20:32:54;101714.03;;;25.99;65.36
73240;BME280;61452;40.054;4.110;2022-09-23T20:37:56;101705.16;;;25.98;65.51
73240;BME280;61452;40.054;4.110;2022-09-23T20:42:58;101704.31;;;25.98;65.40
73240;BME280;61452;40.054;4.110;2022-09-23T20:48:00;101698.75;;;25.99;65.27
73240;BME280;61452;40.054;4.110;2022-09-23T20:53:04;101680.13;;;25.98;65.52
73240;BME280;61452;40.054;4.110;2022-09-23T20:58:06;101684.47;;;25.99;65.46
73240;BME280;61452;40.054;4.110;2022-09-23T21:03:08;101698.94;;;25.98;65.61
73240;BME280;61452;40.054;4.110;2022-09-23T21:08:11;101695.22;;;25.99;65.25
73240;BME280;61452;40.054;4.110;2022-09-23T21:13:13;101694.41;;;25.98;65.51
73240;BME280;61452;40.054;4.110;2022-09-23T21:18:15;101693.56;;;25.98;65.61
73240;BME280;61452;40.054;4.110;2022-09-23T21:23:24;101693.69;;;25.96;65.41
73240;BME280;61452;40.054;4.110;2022-09-23T21:28:30;101689.31;;;25.95;65.54
73240;BME280;61452;40.054;4.110;2022-09-23T21:33:33;101676.72;;;25.96;65.68
73240;BME280;61452;40.054;4.110;2022-09-23T21:38:38;101682.09;;;25.96;65.59
73240;BME280;61452;40.054;4.110;2022-09-23T21:43:40;101680.41;;;25.95;65.68
73240;BME280;61452;40.054;4.110;2022-09-23T21:48:42;101683.94;;;25.95;65.89
73240;BME280;61452;40.054;4.110;2022-09-23T21:53:45;101691.16;;;25.95;65.49
73240;BME280;61452;40.054;4.110;2022-09-23T21:58:47;101694.00;;;25.93;65.83
73240;BME280;61452;40.054;4.110;2022-09-23T22:03:57;101692.16;;;25.94;65.68
73240;BME280;61452;40.054;4.110;2022-09-23T22:09:05;101697.53;;;25.94;65.64
73240;BME280;61452;40.054;4.110;2022-09-23T22:14:12;101690.44;;;25.93;65.66
73240;BME280;61452;40.054;4.110;2022-09-23T22:19:14;101682.38;;;25.93;65.70
73240;BME280;61452;40.054;4.110;2022-09-23T22:24:17;101685.94;;;25.93;65.66
73240;BME280;61452;40.054;4.110;2022-09-23T22:29:20;101677.19;;;25.91;65.86
73240;BME280;61452;40.054;4.110;2022-09-23T22:34:40;101678.03;;;25.92;65.81
73240;BME280;61452;40.054;4.110;2022-09-23T22:39:52;101663.56;;;25.93;66.02
73240;BME280;61452;40.054;4.110;2022-09-23T22:44:55;101650.13;;;25.93;66.11
73240;BME280;61452;40.054;4.110;2022-09-23T22:49:57;101640.41;;;25.92;66.15
73240;BME280;61452;40.054;4.110;2022-09-23T22:54:59;101637.72;;;25.92;66.11
73240;BME280;61452;40.054;4.110;2022-09-23T23:00:06;101649.31;;;25.92;66.20
73240;BME280;61452;40.054;4.110;2022-09-23T23:05:08;101654.69;;;25.92;66.04
73240;BME280;61452;40.054;4.110;2022-09-23T23:10:10;101653.00;;;25.91;66.26
73240;BME280;61452;40.054;4.110;2022-09-23T23:15:12;101644.94;;;25.91;65.91
73240;BME280;61452;40.054;4.110;2022-09-23T23:20:14;101627.94;;;25.91;66.37
73240;BME280;61452;40.054;4.110;2022-09-23T23:25:17;101627.94;;;25.91;66.07
73240;BME280;61452;40.054;4.110;2022-09-23T23:30:19;101621.72;;;25.90;66.45
73240;BME280;61452;40.054;4.110;2022-09-23T23:35:21;101608.28;;;25.90;66.47
73240;BME280;61452;40.054;4.110;2022-09-23T23:40:23;101607.56;;;25.88;66.34
73240;BME280;61452;40.054;4.110;2022-09-23T23:45:25;101603.06;;;25.89;66.35
73240;BME280;61452;40.054;4.110;2022-09-23T23:50:27;101588.75;;;25.88;66.46
73240;BME280;61452;40.054;4.110;2022-09-23T23:55:30;101588.75;;;25.88;66.57
